map of LPAR home
LPAR - Airport
Location
City:  Alverca, Lisboa, Portugal
Near (Alt.):Vila Franca de Xira
Name:Alverca AB
ICAO:LPAR

Details
Type:Airport (Aerodrome, Airfield)
Use:Military, International (customs port of entry)
Latitude:3853'00"N (38.883278)
Longitude:901'48"W (-9.030096)
Datum:WGS 1984
Elevation:11 ft (3 m)
Variation:2.20W (WMM2015 magnetic declination)
0.12 annual change
Runways:1
Longest:9810 × 148 ft (2990 × 45 m), paved

Time
Time Zone:UTC+0 (DST+1)
Local Time:

Weather
METAR:LPAR 161700Z 11002KT 1500 BR OVC003 11/10 Q1018

Related Locations
Nearby:
Farthest:KTF: 12270 mi / 19746 km
Takaka, TAS, NZ

Find:

   beyond  
but within

Other Information
Maps:
NOTAMs:
Links:
Sources:

  
  • flag of Portugal
  

Sectional Chart

Flight Planning
at skyvector.com

Satellite Image

Google Maps Satellite view

 

Copyright © 2004-2019 Karl L. Swartz. All rights reserved.
The Great Circle Mapper name and logo are trademarks of the Great Circle Mapper.
All other trademarks mentioned herein belong to their respective owners.
Please see credits for attibutions and further copyright information.

  Follow gcmap on Facebook Follow gcmap on Twitter Follow gcmap on Google+ GCmap on LinkedIn

hCard Microformat

Geo Microformat